FORUM DES FI

Le site de discussion des formateurs en aéronautique
 
AccueilFAQRechercherS'enregistrerMembresGroupesConnexion

Partagez | 
 

 Visibilité dans les METAR...

Voir le sujet précédent Voir le sujet suivant Aller en bas 
AuteurMessage
Stéphanas

avatar

Nombre de messages : 146
Date d'inscription : 03/09/2007

MessageSujet: Visibilité dans les METAR...   Ven 16 Avr - 18:20

Bien l'bonjour les FI.

Voici deux questions que je pose souvent en test FI et la plupart du temps, les réponses qui me sont données sont fausses.

Prenons l'exemple de deux terrains voisins :

Citation :
LFXX 151400Z 24010KT 9999 BKN020 13/07 Q1013=

LFYY 151400Z AUTO 24010KT 9999NDV BKN020 13/07 Q1013=

Première question :
- Quelle est le nom des visi indiquées à LFXX et à LFYY ?

Deuxième question :
- Quelle est la visi mini à 1400Z sur ces deux terrains ?


Si vous vous donnez la peine de chercher, vous aurez des surprises. Ensuite nous pourrons discuter des implications pour nos vols. Wink

A+

PS : je mets le même sujet sur le forum de Maître Gligli
Revenir en haut Aller en bas
Voir le profil de l'utilisateur
vtf

avatar

Nombre de messages : 38
Age : 59
Localisation : LFPA/LFOB
Date d'inscription : 09/11/2007

MessageSujet: Re: Visibilité dans les METAR...   Ven 16 Avr - 20:41

Bonsoir,

Il s'agit de visibilité dominante sur les deux terrains.

Pour LFXX, la visi minimale est de 5000 m
Pour LFYY, je sais pas !

J'ai bon ?
Revenir en haut Aller en bas
Voir le profil de l'utilisateur
shimmy

avatar

Nombre de messages : 30
Localisation : lfpl
Date d'inscription : 12/07/2008

MessageSujet: Re: Visibilité dans les METAR...   Sam 17 Avr - 17:16

Stéphanas a écrit:
Bien l'bonjour les FI.

Voici deux questions que je pose souvent en test FI et la plupart du temps, les réponses qui me sont données sont fausses.

Prenons l'exemple de deux terrains voisins :

Citation :
LFXX 151400Z 24010KT 9999 BKN020 13/07 Q1013=

LFYY 151400Z AUTO 24010KT 9999NDV BKN020 13/07 Q1013=

Première question :
- Quelle est le nom des visi indiquées à LFXX et à LFYY ?

Deuxième question :
- Quelle est la visi mini à 1400Z sur ces deux terrains ?


Si vous vous donnez la peine de chercher, vous aurez des surprises. Ensuite nous pourrons discuter des implications pour nos vols. Wink

A+

PS : je mets le même sujet sur le forum de Maître Gligli


Ben v'la ot'chose ! Evil or Very Mad
Revenir en haut Aller en bas
Voir le profil de l'utilisateur
Stéphanas

avatar

Nombre de messages : 146
Date d'inscription : 03/09/2007

MessageSujet: Re: Visibilité dans les METAR...   Sam 17 Avr - 23:08

vtf l'a fait tomber en 2 heures seulement. Pour info, il a tenu plus de 24 heures sur le forum de Gligli...

Félicitations vtf. cheers
Revenir en haut Aller en bas
Voir le profil de l'utilisateur
Contenu sponsorisé




MessageSujet: Re: Visibilité dans les METAR...   

Revenir en haut Aller en bas
 
Visibilité dans les METAR...
Voir le sujet précédent Voir le sujet suivant Revenir en haut 
Page 1 sur 1
 Sujets similaires
-
» Etre vu dans l'interfile.
» Visibilité=Sécurité
» Bonnes adresses dans le Haut Doubs
» Perte de sensibilité dans les doigts de pied
» Escalade Dans Les Pyrenees Orientales

Permission de ce forum:Vous ne pouvez pas répondre aux sujets dans ce forum
FORUM DES FI :: INSTRUCTEUR :: LA VIE DES FI-
Sauter vers: